createdAt,value
2019-03-25T00:00:45.006Z,28.23
2019-03-25T00:03:14.443Z,28.30
2019-03-25T00:05:43.909Z,28.03
2019-03-25T00:08:13.381Z,26.70
2019-03-25T00:10:42.788Z,29.33
2019-03-25T00:13:12.574Z,28.63
2019-03-25T00:15:41.990Z,26.70
2019-03-25T00:18:11.434Z,29.50
2019-03-25T00:20:40.885Z,26.67
2019-03-25T00:23:10.327Z,27.43
2019-03-25T00:25:39.786Z,25.57
2019-03-25T00:28:09.221Z,24.00
2019-03-25T00:30:38.670Z,23.50
2019-03-25T00:33:08.113Z,22.43
2019-03-25T00:35:37.568Z,22.57
2019-03-25T00:38:07.011Z,24.03
2019-03-25T00:40:36.464Z,19.13
2019-03-25T00:43:05.906Z,20.50
2019-03-25T00:45:35.352Z,20.77
2019-03-25T00:48:04.790Z,17.87
2019-03-25T00:50:34.318Z,17.13
2019-03-25T00:53:03.754Z,16.43
2019-03-25T00:55:33.196Z,15.37
2019-03-25T00:58:02.633Z,15.17
2019-03-25T01:00:32.346Z,15.83
2019-03-25T01:03:01.785Z,14.23
2019-03-25T01:05:31.290Z,17.57
2019-03-25T01:08:00.718Z,15.80
2019-03-25T01:10:30.838Z,14.47
2019-03-25T01:13:00.270Z,13.83
2019-03-25T01:15:29.998Z,12.57
2019-03-25T01:17:59.430Z,15.30
2019-03-25T01:20:28.954Z,15.30
2019-03-25T01:22:58.384Z,14.00
2019-03-25T01:25:27.835Z,14.00
2019-03-25T01:27:57.266Z,12.23
2019-03-25T01:30:26.761Z,17.33
2019-03-25T01:32:56.196Z,12.93
2019-03-25T01:35:25.630Z,10.47
2019-03-25T01:37:55.066Z,13.27
2019-03-25T01:40:24.516Z,14.83
2019-03-25T01:42:53.951Z,10.27
2019-03-25T01:45:23.394Z,8.03
2019-03-25T01:47:52.832Z,12.83
2019-03-25T01:50:22.262Z,10.00
2019-03-25T01:52:51.711Z,11.40
2019-03-25T01:55:21.139Z,11.87
2019-03-25T01:57:50.582Z,8.10
2019-03-25T02:00:20.382Z,10.27
2019-03-25T02:02:49.898Z,9.63
2019-03-25T02:05:19.621Z,9.97
2019-03-25T02:07:49.055Z,8.10
2019-03-25T02:10:19.047Z,9.40
2019-03-25T02:12:48.481Z,13.57
2019-03-25T02:15:17.903Z,6.50
2019-03-25T02:17:47.343Z,8.03
2019-03-25T02:20:25.932Z,5.57
2019-03-25T02:22:48.064Z,6.63
2019-03-25T02:25:25.214Z,7.03
2019-03-25T02:27:48.722Z,8.67
2019-03-25T02:30:18.333Z,9.47
2019-03-25T02:32:47.767Z,7.60
2019-03-25T02:35:17.206Z,12.43
2019-03-25T02:37:46.635Z,7.67
2019-03-25T02:40:16.073Z,5.87
2019-03-25T02:42:45.517Z,6.77
2019-03-25T02:45:14.950Z,10.03
2019-03-25T02:47:44.397Z,4.97
2019-03-25T02:50:14.451Z,8.07
2019-03-25T02:52:43.893Z,8.97
2019-03-25T02:55:15.112Z,4.67
2019-03-25T02:57:44.562Z,8.07
2019-03-25T03:00:17.238Z,8.13
2019-03-25T03:02:47.075Z,7.73
2019-03-25T03:05:18.046Z,6.47
2019-03-25T03:07:47.492Z,9.17
2019-03-25T03:10:16.981Z,8.17
2019-03-25T03:12:46.424Z,6.87
2019-03-25T03:15:15.854Z,8.60
2019-03-25T03:17:45.552Z,6.40
2019-03-25T03:20:14.981Z,5.80
2019-03-25T03:22:44.424Z,12.53
2019-03-25T03:25:14.178Z,9.73
2019-03-25T03:27:43.618Z,9.30
2019-03-25T03:30:13.188Z,8.30
2019-03-25T03:32:42.639Z,5.60
2019-03-25T03:35:12.149Z,8.27
2019-03-25T03:37:41.578Z,9.83
2019-03-25T03:40:11.150Z,8.07
2019-03-25T03:42:40.653Z,10.37
2019-03-25T03:45:10.485Z,7.87
2019-03-25T03:47:40.247Z,10.20
2019-03-25T03:50:14.118Z,9.13
2019-03-25T03:52:43.701Z,9.63
2019-03-25T03:55:15.657Z,10.50
2019-03-25T03:57:45.002Z,8.40
2019-03-25T04:00:28.199Z,8.57
2019-03-25T04:02:57.639Z,9.33
2019-03-25T04:05:27.082Z,10.83
2019-03-25T04:07:56.584Z,6.87
2019-03-25T04:10:26.072Z,8.53
2019-03-25T04:12:55.517Z,9.10
2019-03-25T04:15:32.171Z,6.23
2019-03-25T04:18:02.080Z,6.93
2019-03-25T04:20:31.858Z,7.43
2019-03-25T04:23:01.294Z,7.37
2019-03-25T04:25:30.716Z,9.03
2019-03-25T04:28:00.155Z,9.30
2019-03-25T04:30:29.657Z,6.70
2019-03-25T04:32:59.168Z,8.57
2019-03-25T04:35:28.599Z,7.10
2019-03-25T04:37:58.059Z,9.13
2019-03-25T04:40:27.468Z,6.67
2019-03-25T04:42:56.913Z,10.23
2019-03-25T04:45:26.344Z,5.97
2019-03-25T04:47:55.790Z,9.60
2019-03-25T04:50:25.233Z,8.80
2019-03-25T04:52:54.669Z,6.97
2019-03-25T04:55:24.473Z,7.90
2019-03-25T04:57:53.906Z,10.20
2019-03-25T05:00:37.050Z,14.93
2019-03-25T05:03:06.722Z,12.53
2019-03-25T05:05:36.424Z,12.17
2019-03-25T05:08:05.973Z,12.20
2019-03-25T05:10:35.395Z,14.10
2019-03-25T05:13:04.838Z,10.20
2019-03-25T05:15:34.268Z,13.80
2019-03-25T05:18:03.712Z,10.20
2019-03-25T05:20:33.139Z,13.87
2019-03-25T05:23:02.868Z,13.73
2019-03-25T05:25:32.298Z,16.23
2019-03-25T05:28:01.734Z,12.70
2019-03-25T05:30:31.167Z,11.07
2019-03-25T05:33:00.605Z,12.20
2019-03-25T05:35:30.042Z,12.67
2019-03-25T05:37:59.477Z,12.20
2019-03-25T05:40:28.901Z,10.17
2019-03-25T05:42:58.713Z,12.17
2019-03-25T05:45:28.141Z,14.50
2019-03-25T05:47:57.586Z,11.17
2019-03-25T05:50:27.012Z,12.07
2019-03-25T05:52:56.450Z,15.73
2019-03-25T05:55:25.878Z,12.57
2019-03-25T05:57:55.325Z,15.00
2019-03-25T06:00:26.384Z,11.47
2019-03-25T06:02:55.813Z,9.20
2019-03-25T06:05:25.240Z,13.07
2019-03-25T06:07:54.683Z,9.03
2019-03-25T06:10:24.114Z,13.90
2019-03-25T06:12:53.549Z,11.93
2019-03-25T06:15:22.974Z,11.50
2019-03-25T06:17:52.406Z,11.67
2019-03-25T06:20:21.852Z,8.77
2019-03-25T06:22:51.429Z,10.80
2019-03-25T06:25:20.901Z,13.40
2019-03-25T06:27:50.297Z,15.53
2019-03-25T06:30:20.222Z,15.07
2019-03-25T06:32:49.641Z,9.70
2019-03-25T06:35:19.090Z,9.00
2019-03-25T06:37:48.510Z,9.50
2019-03-25T06:40:18.153Z,7.17
2019-03-25T06:42:47.590Z,9.73
2019-03-25T06:45:17.614Z,9.87
2019-03-25T06:47:47.053Z,9.73
2019-03-25T06:50:16.558Z,12.93
2019-03-25T06:52:45.980Z,8.33
2019-03-25T06:55:15.417Z,7.77
2019-03-25T06:57:44.852Z,7.33
2019-03-25T07:00:14.434Z,11.10
2019-03-25T07:02:43.869Z,7.67
2019-03-25T07:05:13.756Z,7.60
2019-03-25T07:07:43.174Z,9.07
2019-03-25T07:10:12.871Z,7.50
2019-03-25T07:12:42.282Z,8.53
2019-03-25T07:15:12.061Z,8.47
2019-03-25T07:17:41.487Z,9.03
2019-03-25T07:20:12.466Z,9.37
2019-03-25T07:22:41.903Z,10.27
2019-03-25T07:25:11.337Z,7.90
2019-03-25T07:27:40.771Z,8.77
2019-03-25T07:30:11.591Z,10.27
2019-03-25T07:32:41.114Z,14.17
2019-03-25T07:35:10.749Z,7.70
2019-03-25T07:37:40.188Z,14.07
2019-03-25T07:40:11.538Z,11.60
2019-03-25T07:42:42.918Z,8.27
2019-03-25T07:45:32.993Z,10.37
2019-03-25T07:48:04.178Z,7.43
2019-03-25T07:50:33.746Z,9.47
2019-03-25T07:53:03.188Z,9.93
2019-03-25T07:55:32.633Z,8.30
2019-03-25T07:58:02.067Z,11.93
2019-03-25T08:00:31.519Z,7.40
2019-03-25T08:03:01.098Z,9.80
2019-03-25T08:05:30.557Z,8.03
2019-03-25T08:08:00.020Z,8.07
2019-03-25T08:10:34.955Z,7.67
2019-03-25T08:13:04.703Z,8.33
2019-03-25T08:15:34.415Z,35.53
2019-03-25T08:18:04.845Z,9.20
2019-03-25T08:20:34.281Z,8.73
2019-03-25T08:23:03.786Z,6.67
2019-03-25T08:25:33.235Z,7.20
2019-03-25T08:28:02.806Z,21.67
2019-03-25T08:30:32.329Z,6.30
2019-03-25T08:33:01.756Z,8.33
2019-03-25T08:35:31.199Z,9.07
2019-03-25T08:38:00.985Z,5.57
2019-03-25T08:40:30.442Z,5.97
2019-03-25T08:42:59.880Z,7.63
2019-03-25T08:45:29.327Z,5.93
2019-03-25T08:47:58.759Z,5.73
2019-03-25T08:50:28.182Z,4.17
2019-03-25T08:52:57.645Z,7.23
2019-03-25T08:55:27.140Z,6.63
2019-03-25T08:57:56.653Z,7.37
2019-03-25T09:00:26.084Z,6.30
2019-03-25T09:02:55.525Z,7.63
2019-03-25T09:05:24.962Z,4.77
2019-03-25T09:07:54.888Z,7.53
2019-03-25T09:10:24.463Z,7.37
2019-03-25T09:12:53.895Z,9.20
2019-03-25T09:15:23.389Z,17.70
2019-03-25T09:17:52.829Z,3.90
2019-03-25T09:20:22.261Z,6.57
2019-03-25T09:22:51.702Z,5.93
2019-03-25T09:25:21.134Z,4.73
2019-03-25T09:27:50.570Z,7.20
2019-03-25T09:30:56.846Z,10.30
2019-03-25T09:33:26.311Z,5.17
2019-03-25T09:35:55.740Z,4.47
2019-03-25T09:38:25.247Z,4.83
2019-03-25T09:40:54.686Z,5.60
2019-03-25T09:43:24.125Z,2.33
2019-03-25T09:45:53.547Z,2.53
2019-03-25T09:48:22.995Z,18.93
2019-03-25T09:50:52.433Z,13.23
2019-03-25T09:53:21.871Z,4.33
2019-03-25T09:55:51.302Z,12.53
2019-03-25T09:58:20.999Z,7.83
2019-03-25T10:00:52.153Z,3.40
2019-03-25T10:03:21.770Z,6.33
2019-03-25T10:05:51.201Z,2.53
2019-03-25T10:08:20.643Z,3.37
2019-03-25T10:10:50.307Z,3.27
2019-03-25T10:13:19.748Z,4.80
2019-03-25T10:15:49.246Z,2.43
2019-03-25T10:18:18.689Z,5.90
2019-03-25T10:20:48.117Z,6.60
2019-03-25T10:23:17.557Z,4.90
2019-03-25T10:25:46.997Z,5.47
2019-03-25T10:28:16.426Z,11.57
2019-03-25T10:30:45.880Z,4.13
2019-03-25T10:33:15.310Z,2.87
2019-03-25T10:35:44.746Z,10.13
2019-03-25T10:38:19.475Z,5.83
2019-03-25T10:40:45.351Z,6.57
2019-03-25T10:43:14.859Z,9.47
2019-03-25T10:45:44.291Z,5.20
2019-03-25T10:48:13.728Z,5.47
2019-03-25T10:50:43.830Z,7.03
2019-03-25T10:53:13.262Z,9.17
2019-03-25T10:55:42.718Z,4.23
2019-03-25T10:58:12.164Z,5.20
2019-03-25T11:00:41.600Z,5.03
2019-03-25T11:03:11.115Z,4.40
2019-03-25T11:05:40.551Z,6.13
2019-03-25T11:08:09.993Z,8.27
2019-03-25T11:10:39.432Z,4.63
2019-03-25T11:13:08.865Z,6.47
2019-03-25T11:15:38.298Z,4.17
2019-03-25T11:18:07.741Z,7.50
2019-03-25T11:20:37.199Z,6.03
2019-03-25T11:23:07.104Z,7.83
2019-03-25T11:25:36.528Z,5.27
2019-03-25T11:28:05.978Z,6.40
2019-03-25T11:30:54.309Z,6.13
2019-03-25T11:33:24.912Z,3.80
2019-03-25T11:35:54.401Z,7.27
2019-03-25T11:38:25.128Z,4.60
2019-03-25T11:40:54.562Z,3.93
2019-03-25T11:43:24.001Z,9.07
2019-03-25T11:45:53.700Z,15.73
2019-03-25T11:48:23.145Z,7.53
2019-03-25T11:50:52.586Z,8.10
2019-03-25T11:53:22.090Z,3.97
2019-03-25T11:55:51.531Z,4.00
2019-03-25T11:58:20.969Z,5.70
2019-03-25T12:00:50.977Z,4.50
2019-03-25T12:03:20.433Z,7.43
2019-03-25T12:05:49.863Z,6.60
2019-03-25T12:08:19.374Z,3.83
2019-03-25T12:10:48.812Z,4.10
2019-03-25T12:13:18.328Z,6.47
2019-03-25T12:15:48.037Z,7.30
2019-03-25T12:18:17.494Z,3.83
2019-03-25T12:20:46.924Z,9.37
2019-03-25T12:23:25.775Z,7.33
2019-03-25T12:25:47.524Z,4.00
2019-03-25T12:28:16.971Z,3.20
2019-03-25T12:30:46.404Z,4.80
2019-03-25T12:33:15.850Z,7.33
2019-03-25T12:35:45.285Z,5.67
2019-03-25T12:38:14.881Z,4.83
2019-03-25T12:40:44.410Z,4.27
2019-03-25T12:43:13.858Z,4.17
2019-03-25T12:45:43.364Z,3.30
2019-03-25T12:48:12.814Z,2.77
2019-03-25T12:50:42.250Z,3.23
2019-03-25T12:53:11.697Z,3.27
2019-03-25T12:55:41.186Z,5.60
2019-03-25T12:58:10.627Z,2.63
2019-03-25T13:00:42.477Z,3.33
2019-03-25T13:03:11.916Z,3.00
2019-03-25T13:05:41.491Z,3.30
2019-03-25T13:08:10.937Z,2.37
2019-03-25T13:10:40.362Z,4.67
2019-03-25T13:13:09.942Z,7.47
2019-03-25T13:15:39.399Z,5.83
2019-03-25T13:18:08.845Z,3.20
2019-03-25T13:20:38.280Z,4.20
2019-03-25T13:23:07.785Z,4.03
2019-03-25T13:25:39.372Z,5.27
2019-03-25T13:28:08.409Z,3.13
2019-03-25T13:30:37.857Z,5.50
2019-03-25T13:33:07.291Z,4.13
2019-03-25T13:35:36.737Z,3.53
2019-03-25T13:38:06.162Z,2.80
2019-03-25T13:40:35.671Z,4.13
2019-03-25T13:43:05.101Z,4.60
2019-03-25T13:45:34.541Z,2.87
2019-03-25T13:48:03.986Z,2.90
2019-03-25T13:50:33.429Z,4.47
2019-03-25T13:53:02.875Z,5.97
2019-03-25T13:55:32.301Z,5.27
2019-03-25T13:58:02.106Z,5.47
2019-03-25T14:01:27.666Z,4.37
2019-03-25T14:03:57.096Z,3.83
2019-03-25T14:06:26.538Z,5.67
2019-03-25T14:08:55.976Z,3.60
2019-03-25T14:11:25.497Z,4.73
2019-03-25T14:13:54.924Z,3.00
2019-03-25T14:16:24.371Z,2.63
2019-03-25T14:18:53.817Z,4.10
2019-03-25T14:21:23.319Z,3.63
2019-03-25T14:23:52.752Z,4.00
2019-03-25T14:26:22.187Z,2.73
2019-03-25T14:28:51.628Z,3.60
2019-03-25T14:31:21.058Z,7.97
2019-03-25T14:33:50.506Z,3.73
2019-03-25T14:36:20.200Z,4.03
2019-03-25T14:38:49.650Z,3.07
2019-03-25T14:41:19.073Z,2.60
2019-03-25T14:43:48.511Z,4.77
2019-03-25T14:46:17.950Z,3.17
2019-03-25T14:48:47.383Z,6.63
2019-03-25T14:51:16.809Z,2.90
2019-03-25T14:53:46.256Z,4.47
2019-03-25T14:56:16.051Z,2.47
2019-03-25T14:58:45.511Z,2.67
2019-03-25T15:01:14.952Z,5.97
2019-03-25T15:03:44.457Z,4.80
2019-03-25T15:06:13.886Z,3.30
2019-03-25T15:08:43.334Z,3.23
2019-03-25T15:11:12.763Z,3.40
2019-03-25T15:13:42.204Z,3.80
2019-03-25T15:16:11.652Z,3.67
2019-03-25T15:18:41.086Z,3.97
2019-03-25T15:21:10.519Z,3.87
2019-03-25T15:23:40.213Z,3.30
2019-03-25T15:26:09.723Z,4.37
2019-03-25T15:28:39.173Z,2.07
2019-03-25T15:31:08.678Z,3.13
2019-03-25T15:33:38.115Z,2.00
2019-03-25T15:36:07.545Z,3.47
2019-03-25T15:38:36.997Z,4.63
2019-03-25T15:41:06.862Z,3.60
2019-03-25T15:43:36.323Z,4.00
2019-03-25T15:46:05.754Z,3.87
2019-03-25T15:48:35.195Z,2.77
2019-03-25T15:51:04.638Z,4.47
2019-03-25T15:53:34.104Z,3.87
2019-03-25T15:56:03.552Z,3.27
2019-03-25T15:58:33.003Z,2.43
2019-03-25T16:01:02.456Z,3.67
2019-03-25T16:03:31.915Z,2.00
2019-03-25T16:06:01.364Z,4.23
2019-03-25T16:08:31.132Z,2.73
2019-03-25T16:11:00.571Z,4.40
2019-03-25T16:13:30.061Z,3.67
2019-03-25T16:15:59.487Z,2.70
2019-03-25T16:18:35.034Z,2.53
2019-03-25T16:21:04.657Z,2.63
2019-03-25T16:23:34.112Z,2.50
2019-03-25T16:26:03.631Z,2.90
2019-03-25T16:28:33.446Z,2.23
2019-03-25T16:31:03.696Z,8.93
2019-03-25T16:33:33.140Z,1.47
2019-03-25T16:36:02.565Z,2.53
2019-03-25T16:38:32.191Z,0.90
2019-03-25T16:41:01.629Z,0.70
2019-03-25T16:43:31.184Z,2.90
2019-03-25T16:46:00.622Z,2.30
2019-03-25T16:48:30.066Z,0.77
2019-03-25T16:50:59.507Z,2.30
2019-03-25T16:53:28.943Z,4.03
2019-03-25T16:55:58.369Z,1.30
2019-03-25T16:58:27.809Z,1.83
2019-03-25T17:00:57.230Z,0.20
2019-03-25T17:03:47.682Z,0.30
2019-03-25T17:06:17.932Z,0.83
2019-03-25T17:08:47.370Z,0.23
2019-03-25T17:11:16.794Z,1.10
2019-03-25T17:13:46.246Z,1.90
2019-03-25T17:16:15.969Z,0.60
2019-03-25T17:18:45.405Z,0.60
2019-03-25T17:21:14.830Z,1.00
2019-03-25T17:23:44.275Z,1.10
2019-03-25T17:26:13.694Z,0.50
2019-03-25T17:28:43.144Z,1.07
2019-03-25T17:31:20.619Z,0.67
2019-03-25T17:33:43.722Z,0.53
2019-03-25T17:36:13.147Z,0.90
2019-03-25T17:38:42.595Z,0.67
2019-03-25T17:41:12.028Z,1.43
2019-03-25T17:43:41.468Z,1.47
2019-03-25T17:46:10.895Z,2.20
2019-03-25T17:48:40.336Z,1.40
2019-03-25T17:51:10.085Z,0.73
2019-03-25T17:53:39.528Z,0.67
2019-03-25T17:56:08.947Z,0.50
2019-03-25T17:58:38.392Z,0.83
2019-03-25T18:01:09.693Z,2.53
2019-03-25T18:03:39.122Z,0.67
2019-03-25T18:06:08.550Z,3.30
2019-03-25T18:08:38.008Z,1.83
2019-03-25T18:11:07.422Z,1.63
2019-03-25T18:13:36.850Z,2.43
2019-03-25T18:16:06.310Z,0.67
2019-03-25T18:18:35.719Z,1.70
2019-03-25T18:21:05.155Z,1.90
2019-03-25T18:23:34.603Z,1.67
2019-03-25T18:26:04.166Z,1.27
2019-03-25T18:28:33.586Z,0.90
2019-03-25T18:31:03.298Z,0.93
2019-03-25T18:33:32.716Z,1.43
2019-03-25T18:36:02.150Z,1.17
2019-03-25T18:38:31.577Z,2.50
2019-03-25T18:41:01.014Z,3.47
2019-03-25T18:43:30.431Z,1.30
2019-03-25T18:45:59.877Z,1.97
2019-03-25T18:48:29.558Z,1.77
2019-03-25T18:50:58.985Z,1.60
2019-03-25T18:53:28.676Z,2.13
2019-03-25T18:55:58.181Z,3.40
2019-03-25T18:58:27.603Z,1.80
2019-03-25T19:00:57.045Z,1.47
2019-03-25T19:03:26.469Z,1.43
2019-03-25T19:05:55.919Z,2.03
2019-03-25T19:08:25.347Z,4.80
2019-03-25T19:10:54.772Z,2.00
2019-03-25T19:13:24.205Z,3.17
2019-03-25T19:15:53.718Z,2.47
2019-03-25T19:18:23.160Z,2.27
2019-03-25T19:20:52.595Z,2.10
2019-03-25T19:23:22.017Z,4.80
2019-03-25T19:25:51.451Z,2.77
2019-03-25T19:28:20.882Z,3.80
2019-03-25T19:30:50.655Z,1.90
2019-03-25T19:33:20.096Z,2.30
2019-03-25T19:35:49.555Z,5.60
2019-03-25T19:38:18.959Z,3.87
2019-03-25T19:40:48.424Z,2.33
2019-03-25T19:43:17.825Z,2.90
2019-03-25T19:45:47.257Z,2.50
2019-03-25T19:48:16.714Z,2.10
2019-03-25T19:50:46.109Z,4.83
2019-03-25T19:53:19.453Z,1.90
2019-03-25T19:55:46.692Z,1.70
2019-03-25T19:58:16.130Z,2.53
2019-03-25T20:00:45.600Z,3.63
2019-03-25T20:03:14.997Z,3.63
2019-03-25T20:05:44.438Z,2.20
2019-03-25T20:08:13.868Z,3.50
2019-03-25T20:10:43.299Z,2.77
2019-03-25T20:13:12.737Z,4.27
2019-03-25T20:15:46.560Z,3.57
2019-03-25T20:18:13.366Z,3.80
2019-03-25T20:20:42.741Z,2.17
2019-03-25T20:23:12.221Z,3.87
2019-03-25T20:25:41.608Z,2.80
2019-03-25T20:28:11.051Z,2.63
2019-03-25T20:30:40.773Z,1.93
2019-03-25T20:33:10.208Z,1.10
2019-03-25T20:35:39.740Z,2.47
2019-03-25T20:38:09.153Z,1.10
2019-03-25T20:40:38.583Z,2.17
2019-03-25T20:43:08.025Z,1.33
2019-03-25T20:45:37.451Z,1.87
2019-03-25T20:48:06.885Z,1.87
2019-03-25T20:50:36.350Z,5.47
2019-03-25T20:53:05.818Z,2.93
2019-03-25T20:55:35.679Z,2.77
2019-03-25T20:58:05.151Z,1.80
2019-03-25T21:00:55.555Z,1.10
2019-03-25T21:03:25.356Z,1.33
2019-03-25T21:05:54.796Z,1.00
2019-03-25T21:08:24.212Z,1.80
2019-03-25T21:10:53.663Z,2.27
2019-03-25T21:13:23.137Z,2.37
2019-03-25T21:15:52.667Z,1.80
2019-03-25T21:18:22.137Z,3.60
2019-03-25T21:20:51.549Z,2.53
2019-03-25T21:23:20.967Z,3.27
2019-03-25T21:25:50.396Z,2.30
2019-03-25T21:28:19.830Z,1.80
2019-03-25T21:30:49.268Z,4.00
2019-03-25T21:33:18.711Z,1.53
2019-03-25T21:35:48.221Z,2.20
2019-03-25T21:38:17.675Z,2.90
2019-03-25T21:40:47.158Z,2.43
2019-03-25T21:43:16.678Z,3.40
2019-03-25T21:45:46.124Z,3.13
2019-03-25T21:48:15.583Z,2.47
2019-03-25T21:50:45.037Z,2.17
2019-03-25T21:53:14.455Z,2.37
2019-03-25T21:55:44.024Z,2.30
2019-03-25T21:58:13.750Z,2.50
2019-03-25T22:00:43.216Z,2.83
2019-03-25T22:03:12.887Z,3.23
2019-03-25T22:05:42.322Z,3.10
2019-03-25T22:08:11.759Z,2.90
2019-03-25T22:10:43.030Z,3.20
2019-03-25T22:13:12.353Z,2.67
2019-03-25T22:15:41.776Z,4.13
2019-03-25T22:18:11.786Z,3.27
2019-03-25T22:20:41.222Z,3.33
2019-03-25T22:23:10.994Z,2.87
2019-03-25T22:25:40.417Z,3.30
2019-03-25T22:28:09.861Z,3.70
2019-03-25T22:30:39.298Z,4.87
2019-03-25T22:33:08.733Z,4.40
2019-03-25T22:35:38.157Z,4.60
2019-03-25T22:38:07.659Z,4.13
2019-03-25T22:40:37.102Z,4.07
2019-03-25T22:43:06.548Z,6.37
2019-03-25T22:45:35.982Z,5.40
2019-03-25T22:48:07.339Z,5.13
2019-03-25T22:50:37.160Z,5.43
2019-03-25T22:53:06.602Z,4.97
2019-03-25T22:55:36.303Z,4.90
2019-03-25T22:58:05.734Z,4.40
2019-03-25T23:00:42.643Z,5.83
2019-03-25T23:03:12.088Z,4.93
2019-03-25T23:05:41.505Z,4.83
2019-03-25T23:08:10.938Z,5.13
2019-03-25T23:10:40.362Z,5.60
2019-03-25T23:13:09.795Z,6.37
2019-03-25T23:15:39.230Z,7.53
2019-03-25T23:18:08.657Z,6.37
2019-03-25T23:20:38.098Z,6.23
2019-03-25T23:23:07.523Z,7.37
2019-03-25T23:25:36.966Z,6.63
2019-03-25T23:28:06.401Z,6.83
2019-03-25T23:30:35.850Z,8.10
2019-03-25T23:33:05.284Z,6.77
2019-03-25T23:35:34.795Z,7.40
2019-03-25T23:38:04.227Z,7.00
2019-03-25T23:40:33.674Z,7.30
2019-03-25T23:43:03.100Z,7.43
2019-03-25T23:45:32.534Z,8.47
2019-03-25T23:48:02.002Z,7.60
2019-03-25T23:50:31.452Z,7.33
2019-03-25T23:53:00.876Z,7.30
2019-03-25T23:55:30.332Z,8.03
2019-03-25T23:57:59.764Z,7.57
